Tipton, Michigan
Current Conditions -  °F | °C
As of 8:05 AM on Saturday 25 Oct 2014 (Local Time) from KADG Reporting Station
Haze Haze  
Wind Chill: 46°   Ceiling: 4000
Heat Index: 48°   Visibility: 1.5mi
Dew Point: 47°   Wind: 5mph
Humidity: 96%   Direction: 250°WSW
Pressure: 29.89"   Gusts: NA
Location:  42.02°N, 84.06°W
Report Text: KADG 251205Z AUTO 25004KT 1 1/2SM BR FEW020 BKN040 BKN050 09/08 A2989 RMK AO2 T00890083
Loading
Personal Weather Stations






























Interactive Weather Map
Tropical Storm Tracking
New forecast layout! Learn more

10-Day Weather Forecast

Advertisements
Track Severe Weather on mobile